Time;durP1;ratioP1;P1;durP2;ratioP2;P2;SDS_P1;SDS_P2;PMS_P1;PMS_P2;Temp;Humidity;BMP_temperature;BMP_pressure;BME280_temperature;BME280_humidity;BME280_pressure;Samples;Min_cycle;Max_cycle;Signal;HPM_P1;HPM_P2
2024/02/12 00:02:05;;;;;;;69.95;25.85;;;;;;;;;;4978363;28;20093;-67
2024/02/12 00:04:31;;;;;;;68.32;25.05;;;;;;;;;;4982131;28;20100;-67
2024/02/12 00:06:57;;;;;;;59.60;23.25;;;;;;;;;;4961554;28;20526;-67
2024/02/12 00:09:24;;;;;;;71.60;23.02;;;;;;;;;;4972595;28;20361;-66
2024/02/12 00:11:51;;;;;;;59.47;23.30;;;;;;;;;;4969494;28;20473;-67
2024/02/12 00:14:17;;;;;;;65.88;23.48;;;;;;;;;;4971969;28;20039;-67
2024/02/12 00:16:45;;;;;;;62.80;21.67;;;;;;;;;;4979013;28;20050;-67
2024/02/12 00:19:11;;;;;;;59.75;22.65;;;;;;;;;;4977287;28;20473;-67
2024/02/12 00:21:39;;;;;;;59.22;21.60;;;;;;;;;;4970363;28;20050;-67
2024/02/12 00:24:06;;;;;;;56.85;20.92;;;;;;;;;;4979481;28;20096;-67
2024/02/12 00:26:32;;;;;;;53.17;21.25;;;;;;;;;;4980596;28;20054;-66
2024/02/12 00:28:59;;;;;;;56.90;20.48;;;;;;;;;;4985027;28;20043;-66
2024/02/12 00:31:28;;;;;;;51.25;19.77;;;;;;;;;;4977577;28;20410;-67
2024/02/12 00:33:54;;;;;;;60.45;20.20;;;;;;;;;;4973490;28;20047;-67
2024/02/12 00:36:21;;;;;;;59.50;20.58;;;;;;;;;;4989330;28;20068;-67
2024/02/12 00:38:47;;;;;;;60.33;20.17;;;;;;;;;;4994300;28;20474;-67
2024/02/12 00:41:15;;;;;;;49.63;19.73;;;;;;;;;;4994979;28;20045;-67
2024/02/12 00:43:42;;;;;;;44.30;19.50;;;;;;;;;;4998201;28;20046;-67
2024/02/12 00:46:09;;;;;;;47.50;20.10;;;;;;;;;;4993220;28;20157;-67
2024/02/12 00:48:36;;;;;;;47.30;19.55;;;;;;;;;;4982647;28;20117;-67
2024/02/12 00:51:02;;;;;;;46.72;17.77;;;;;;;;;;4978977;28;20103;-67
2024/02/12 00:53:28;;;;;;;41.55;17.25;;;;;;;;;;4980935;28;20050;-67
2024/02/12 00:55:55;;;;;;;49.05;18.77;;;;;;;;;;4982849;28;20077;-67
2024/02/12 00:58:22;;;;;;;47.10;17.20;;;;;;;;;;4979094;28;20050;-67
2024/02/12 01:00:49;;;;;;;43.83;16.65;;;;;;;;;;4982976;28;20054;-66
2024/02/12 01:03:16;;;;;;;40.33;16.95;;;;;;;;;;4982953;28;20046;-66
2024/02/12 01:05:44;;;;;;;39.45;17.27;;;;;;;;;;4981056;28;20398;-67
2024/02/12 01:08:11;;;;;;;36.17;17.63;;;;;;;;;;4993906;28;20042;-66
2024/02/12 01:10:37;;;;;;;39.15;16.70;;;;;;;;;;4992833;28;20095;-66
2024/02/12 01:13:03;;;;;;;43.47;16.50;;;;;;;;;;4980120;28;20058;-67
2024/02/12 01:15:30;;;;;;;43.20;16.60;;;;;;;;;;4999564;28;20041;-67
2024/02/12 01:17:57;;;;;;;47.45;16.55;;;;;;;;;;4993030;28;20111;-66
2024/02/12 01:20:23;;;;;;;39.78;17.95;;;;;;;;;;4981438;28;20056;-67
2024/02/12 01:22:50;;;;;;;41.15;16.65;;;;;;;;;;4983098;28;20129;-67
2024/02/12 01:25:18;;;;;;;45.33;17.75;;;;;;;;;;4980871;28;20054;-67
2024/02/12 01:27:45;;;;;;;38.10;17.73;;;;;;;;;;4982614;28;20486;-66
2024/02/12 01:30:12;;;;;;;42.70;17.95;;;;;;;;;;4981279;28;20128;-68
2024/02/12 01:32:39;;;;;;;40.85;18.98;;;;;;;;;;4973969;28;20075;-66
2024/02/12 01:35:05;;;;;;;35.88;16.20;;;;;;;;;;4967839;28;20059;-66
2024/02/12 01:37:32;;;;;;;38.58;17.80;;;;;;;;;;4954536;28;20101;-66
2024/02/12 01:39:59;;;;;;;40.83;17.40;;;;;;;;;;4958850;28;20051;-66
2024/02/12 01:42:25;;;;;;;45.00;18.95;;;;;;;;;;4960981;28;20069;-66
2024/02/12 01:45:02;;;;;;;40.58;18.05;;;;;;;;;;4958537;28;20103;-66
2024/02/12 01:47:33;;;;;;;48.28;18.75;;;;;;;;;;4949287;28;20356;-66
2024/02/12 01:50:00;;;;;;;43.17;19.25;;;;;;;;;;4956428;28;20065;-66
2024/02/12 01:52:27;;;;;;;46.50;19.02;;;;;;;;;;4957323;28;20042;-66
2024/02/12 01:54:55;;;;;;;47.35;19.60;;;;;;;;;;4963390;28;20077;-66
2024/02/12 01:57:23;;;;;;;47.88;19.73;;;;;;;;;;4952346;28;20058;-67
2024/02/12 01:59:49;;;;;;;44.55;19.23;;;;;;;;;;4949163;28;20403;-66
2024/02/12 02:02:15;;;;;;;46.97;19.98;;;;;;;;;;4958789;28;20119;-66
2024/02/12 02:04:42;;;;;;;43.08;19.58;;;;;;;;;;4940904;28;20058;-66
2024/02/12 02:07:19;;;;;;;40.55;20.73;;;;;;;;;;4958471;28;20097;-66
2024/02/12 02:09:47;;;;;;;47.28;21.73;;;;;;;;;;4952971;28;20051;-66
2024/02/12 02:12:14;;;;;;;54.40;20.77;;;;;;;;;;4949383;28;20055;-66
2024/02/12 02:14:42;;;;;;;42.88;20.27;;;;;;;;;;4964818;28;20061;-66
2024/02/12 02:17:09;;;;;;;42.75;20.75;;;;;;;;;;4955297;28;20101;-66
2024/02/12 02:19:35;;;;;;;51.67;20.48;;;;;;;;;;4958124;28;20089;-66
2024/02/12 02:22:02;;;;;;;48.92;22.27;;;;;;;;;;4949782;28;20055;-66
2024/02/12 02:24:29;;;;;;;47.17;21.27;;;;;;;;;;4955759;28;20497;-66
2024/02/12 02:26:56;;;;;;;47.38;21.13;;;;;;;;;;4966425;28;20517;-66
2024/02/12 02:29:22;;;;;;;47.72;20.83;;;;;;;;;;4958629;28;20137;-67
2024/02/12 02:31:48;;;;;;;45.85;21.17;;;;;;;;;;4968255;28;20051;-66
2024/02/12 02:34:14;;;;;;;49.17;21.20;;;;;;;;;;4960262;28;20039;-66
2024/02/12 02:36:46;;;;;;;48.85;21.30;;;;;;;;;;4973270;28;20058;-67
2024/02/12 02:39:13;;;;;;;47.20;21.70;;;;;;;;;;4972522;28;20054;-66
2024/02/12 02:41:42;;;;;;;50.00;21.38;;;;;;;;;;4982144;28;20130;-67
2024/02/12 02:44:09;;;;;;;52.92;22.92;;;;;;;;;;4977450;28;20042;-66
2024/02/12 02:46:36;;;;;;;54.97;24.15;;;;;;;;;;4994984;28;20481;-66
2024/02/12 02:49:03;;;;;;;51.85;22.85;;;;;;;;;;4984908;28;20054;-66
2024/02/12 02:51:30;;;;;;;50.38;22.63;;;;;;;;;;4988763;28;20056;-66
2024/02/12 02:53:56;;;;;;;51.72;23.73;;;;;;;;;;4990196;28;20033;-66
2024/02/12 02:56:23;;;;;;;59.03;24.42;;;;;;;;;;4986051;28;20521;-67
2024/02/12 02:58:50;;;;;;;57.45;23.27;;;;;;;;;;4990132;28;20054;-66
2024/02/12 03:01:19;;;;;;;58.30;23.10;;;;;;;;;;4987885;28;20719;-66
2024/02/12 03:03:51;;;;;;;56.17;23.10;;;;;;;;;;4980427;28;20055;-66
2024/02/12 03:06:19;;;;;;;50.65;23.10;;;;;;;;;;4987505;28;20058;-66
2024/02/12 03:08:48;;;;;;;54.40;23.08;;;;;;;;;;4983039;28;20066;-66
2024/02/12 03:11:18;;;;;;;61.33;23.38;;;;;;;;;;4984290;28;20066;-66
2024/02/12 03:13:45;;;;;;;56.67;22.40;;;;;;;;;;4986879;28;20362;-66
2024/02/12 03:16:14;;;;;;;64.22;23.77;;;;;;;;;;4983499;28;20042;-66
2024/02/12 03:18:41;;;;;;;53.35;22.15;;;;;;;;;;4979968;28;20050;-66
2024/02/12 03:21:09;;;;;;;55.85;23.30;;;;;;;;;;4967794;28;20113;-66
2024/02/12 03:23:35;;;;;;;55.30;22.77;;;;;;;;;;4979113;28;20043;-66
2024/02/12 03:26:04;;;;;;;55.05;24.67;;;;;;;;;;4980617;28;20145;-66
2024/02/12 03:28:31;;;;;;;61.85;25.35;;;;;;;;;;4976040;28;20101;-66
2024/02/12 03:30:57;;;;;;;59.92;24.92;;;;;;;;;;4976093;28;20113;-66
2024/02/12 03:33:23;;;;;;;62.67;24.33;;;;;;;;;;4975384;28;20082;-66
2024/02/12 03:35:49;;;;;;;62.97;27.15;;;;;;;;;;4981415;28;20384;-66
2024/02/12 03:38:15;;;;;;;65.78;26.25;;;;;;;;;;4987706;28;20043;-66
2024/02/12 03:40:45;;;;;;;67.32;24.95;;;;;;;;;;4994445;28;20096;-66
2024/02/12 03:43:11;;;;;;;59.72;24.33;;;;;;;;;;4974285;28;20512;-66
2024/02/12 03:45:38;;;;;;;63.38;25.85;;;;;;;;;;4983776;28;20093;-66
2024/02/12 03:59:50;;;;;;;61.40;25.48;;;;;;;;;;4973115;28;20054;-66
2024/02/12 04:01:51;;;;;;;64.65;25.33;;;;;;;;;;4980009;28;20376;-66
2024/02/12 04:04:19;;;;;;;74.40;26.80;;;;;;;;;;4979377;28;20434;-66
2024/02/12 04:06:45;;;;;;;70.72;26.77;;;;;;;;;;4974844;28;20066;-66
2024/02/12 04:09:12;;;;;;;60.83;24.10;;;;;;;;;;4991356;28;20054;-67
2024/02/12 04:11:40;;;;;;;63.05;24.70;;;;;;;;;;4979296;28;20118;-66
2024/02/12 04:14:07;;;;;;;64.93;25.20;;;;;;;;;;4983248;28;20051;-66
2024/02/12 04:16:33;;;;;;;58.03;23.70;;;;;;;;;;4981344;28;20135;-66
2024/02/12 04:18:59;;;;;;;62.40;24.33;;;;;;;;;;4976991;28;20043;-66
2024/02/12 04:21:27;;;;;;;69.85;26.35;;;;;;;;;;4975175;28;20478;-66
2024/02/12 04:23:53;;;;;;;65.50;25.30;;;;;;;;;;4978474;28;20130;-66
2024/02/12 04:26:20;;;;;;;63.58;26.60;;;;;;;;;;4975744;28;20084;-66
2024/02/12 04:28:48;;;;;;;63.90;24.13;;;;;;;;;;4975051;28;20517;-66
2024/02/12 04:31:15;;;;;;;66.95;25.40;;;;;;;;;;4978265;28;20057;-66
2024/02/12 04:33:43;;;;;;;65.50;24.92;;;;;;;;;;4984000;28;20060;-66
2024/02/12 04:36:14;;;;;;;65.55;24.83;;;;;;;;;;4983675;28;20050;-67
2024/02/12 04:38:41;;;;;;;62.85;25.17;;;;;;;;;;4995618;28;20061;-67
2024/02/12 04:41:07;;;;;;;70.97;26.98;;;;;;;;;;4984959;28;20188;-66
2024/02/12 04:43:35;;;;;;;59.03;24.08;;;;;;;;;;4993522;28;20479;-66
2024/02/12 04:46:01;;;;;;;65.03;26.20;;;;;;;;;;4978677;28;20486;-66
2024/02/12 04:48:27;;;;;;;61.35;25.50;;;;;;;;;;4995960;28;20041;-66
2024/02/12 04:50:54;;;;;;;69.22;26.02;;;;;;;;;;4980798;28;20347;-66
2024/02/12 04:53:20;;;;;;;74.85;28.05;;;;;;;;;;4979891;28;20046;-66
2024/02/12 04:55:46;;;;;;;73.50;25.60;;;;;;;;;;4997075;28;20046;-66
2024/02/12 04:58:12;;;;;;;52.65;25.17;;;;;;;;;;4989696;28;20081;-67
2024/02/12 05:00:38;;;;;;;64.35;25.02;;;;;;;;;;4987572;28;20686;-67
2024/02/12 05:03:07;;;;;;;64.93;24.73;;;;;;;;;;4988811;28;20794;-66
2024/02/12 05:05:34;;;;;;;69.38;26.40;;;;;;;;;;4996261;28;20105;-66
2024/02/12 05:08:03;;;;;;;53.72;23.35;;;;;;;;;;4994946;28;20383;-67
2024/02/12 05:10:30;;;;;;;52.85;24.55;;;;;;;;;;4988331;28;20482;-66
2024/02/12 05:12:56;;;;;;;50.70;23.10;;;;;;;;;;4999567;28;20080;-67
2024/02/12 05:15:24;;;;;;;63.08;25.10;;;;;;;;;;4989693;28;20054;-66
2024/02/12 05:18:06;;;;;;;63.10;24.50;;;;;;;;;;4995681;28;20117;-67
2024/02/12 05:23:18;;;;;;;65.80;24.60;;;;;;;;;;4977796;28;20103;-66
2024/02/12 05:25:44;;;;;;;68.97;26.63;;;;;;;;;;4986595;28;20066;-66
2024/02/12 05:28:10;;;;;;;69.28;26.58;;;;;;;;;;4986832;28;20038;-67
2024/02/12 05:30:37;;;;;;;70.80;25.55;;;;;;;;;;4985122;28;20046;-66
2024/02/12 05:33:06;;;;;;;78.15;27.63;;;;;;;;;;4992802;28;20046;-67
2024/02/12 05:35:32;;;;;;;61.88;24.85;;;;;;;;;;4980776;28;20070;-67
2024/02/12 05:37:58;;;;;;;68.13;26.65;;;;;;;;;;4985256;28;20495;-67
2024/02/12 05:40:25;;;;;;;62.63;25.77;;;;;;;;;;4989897;28;20474;-67
2024/02/12 05:42:51;;;;;;;60.30;26.38;;;;;;;;;;4983420;28;20042;-67
2024/02/12 05:45:18;;;;;;;59.90;25.63;;;;;;;;;;4988648;28;20553;-66
2024/02/12 05:47:44;;;;;;;68.90;26.73;;;;;;;;;;5009984;28;20095;-67
2024/02/12 05:50:12;;;;;;;65.18;26.23;;;;;;;;;;4994688;28;20209;-67
2024/02/12 05:52:39;;;;;;;65.18;26.23;;;;;;;;;;4962050;28;20046;-66
2024/02/12 05:55:06;;;;;;;58.13;25.55;;;;;;;;;;4994718;28;20695;-67
2024/02/12 05:57:32;;;;;;;68.85;26.08;;;;;;;;;;5006249;28;20054;-67
2024/02/12 05:59:59;;;;;;;62.10;26.83;;;;;;;;;;4993667;28;20037;-66
2024/02/12 06:02:25;;;;;;;62.55;24.55;;;;;;;;;;4995291;28;20370;-66
2024/02/12 06:04:51;;;;;;;60.33;24.50;;;;;;;;;;4989090;28;20037;-67
2024/02/12 06:07:18;;;;;;;65.57;23.35;;;;;;;;;;5005788;28;20072;-66
2024/02/12 06:09:44;;;;;;;59.15;23.73;;;;;;;;;;4996194;28;20393;-67
2024/02/12 06:12:13;;;;;;;59.95;25.02;;;;;;;;;;4988125;28;20113;-66
2024/02/12 06:14:39;;;;;;;70.68;23.63;;;;;;;;;;5007957;28;20046;-66
2024/02/12 06:17:07;;;;;;;60.42;24.20;;;;;;;;;;5004490;28;20045;-66
2024/02/12 06:19:33;;;;;;;52.28;23.25;;;;;;;;;;4989096;28;20049;-67
2024/02/12 06:21:59;;;;;;;61.60;22.90;;;;;;;;;;4981842;28;20121;-67
2024/02/12 06:24:25;;;;;;;58.97;23.40;;;;;;;;;;4996239;28;20485;-66
2024/02/12 06:26:52;;;;;;;61.45;23.70;;;;;;;;;;5002242;28;20152;-66
2024/02/12 06:29:19;;;;;;;56.97;23.27;;;;;;;;;;4986339;28;20037;-66
2024/02/12 06:31:45;;;;;;;62.08;23.05;;;;;;;;;;4986227;28;20389;-66
2024/02/12 06:34:11;;;;;;;62.42;23.95;;;;;;;;;;4978288;28;20076;-67
2024/02/12 06:36:38;;;;;;;62.30;23.02;;;;;;;;;;4976749;28;20050;-66
2024/02/12 06:39:05;;;;;;;66.15;23.75;;;;;;;;;;4994725;28;20049;-67
2024/02/12 06:41:32;;;;;;;58.42;23.65;;;;;;;;;;4984049;28;20140;-67
2024/02/12 06:43:59;;;;;;;56.13;22.92;;;;;;;;;;4978314;28;20089;-66
2024/02/12 06:46:25;;;;;;;65.50;24.58;;;;;;;;;;4997187;28;20486;-66
2024/02/12 06:48:51;;;;;;;64.03;25.13;;;;;;;;;;4993754;28;20038;-67
2024/02/12 06:51:18;;;;;;;65.30;24.58;;;;;;;;;;4999720;28;20038;-67
2024/02/12 06:53:44;;;;;;;68.75;24.73;;;;;;;;;;4995192;28;20126;-66
2024/02/12 06:56:10;;;;;;;63.13;25.50;;;;;;;;;;4988924;28;20625;-66
2024/02/12 06:58:37;;;;;;;64.72;23.52;;;;;;;;;;4986631;28;20050;-67
2024/02/12 07:01:04;;;;;;;54.22;23.15;;;;;;;;;;4987113;28;20485;-66
2024/02/12 07:03:32;;;;;;;56.72;23.92;;;;;;;;;;4995876;28;20447;-66
2024/02/12 07:05:59;;;;;;;65.75;23.88;;;;;;;;;;4997508;28;20042;-68
2024/02/12 07:08:25;;;;;;;64.88;23.63;;;;;;;;;;4967192;28;20494;-66
2024/02/12 07:10:52;;;;;;;61.63;22.38;;;;;;;;;;4980269;28;20050;-67
2024/02/12 07:13:18;;;;;;;75.32;26.75;;;;;;;;;;4978035;28;20046;-66
2024/02/12 07:15:44;;;;;;;61.28;23.65;;;;;;;;;;4995767;28;20175;-66
2024/02/12 07:18:11;;;;;;;57.72;24.05;;;;;;;;;;4973619;28;20046;-66
2024/02/12 07:20:39;;;;;;;56.10;23.40;;;;;;;;;;4981920;28;20073;-66
2024/02/12 07:23:06;;;;;;;62.13;23.55;;;;;;;;;;4999093;28;20049;-66
2024/02/12 07:25:33;;;;;;;61.60;24.52;;;;;;;;;;4987850;28;20062;-66
2024/02/12 07:28:00;;;;;;;52.75;22.02;;;;;;;;;;5005596;28;20490;-73
2024/02/12 07:30:27;;;;;;;67.65;23.70;;;;;;;;;;4983813;28;20050;-66
2024/02/12 07:32:55;;;;;;;64.47;23.67;;;;;;;;;;4981731;28;20054;-66
2024/02/12 07:35:21;;;;;;;55.25;21.80;;;;;;;;;;4996708;28;20053;-66
2024/02/12 07:37:49;;;;;;;56.30;22.23;;;;;;;;;;4983696;28;20539;-67
2024/02/12 07:40:16;;;;;;;52.83;22.13;;;;;;;;;;4986057;28;20122;-67
2024/02/12 07:42:42;;;;;;;64.30;22.67;;;;;;;;;;4999658;28;20065;-66
2024/02/12 07:45:10;;;;;;;60.88;22.90;;;;;;;;;;4982836;28;20073;-66
2024/02/12 07:47:37;;;;;;;59.67;21.85;;;;;;;;;;4984909;28;20166;-66
2024/02/12 07:50:05;;;;;;;52.63;22.52;;;;;;;;;;4986076;28;20058;-66
2024/02/12 07:52:32;;;;;;;61.88;22.60;;;;;;;;;;4995447;28;20046;-66
2024/02/12 07:55:00;;;;;;;55.38;22.38;;;;;;;;;;4992728;28;20416;-66
2024/02/12 07:57:27;;;;;;;54.88;22.27;;;;;;;;;;4990413;28;20053;-66
2024/02/12 07:59:54;;;;;;;59.72;21.10;;;;;;;;;;4993916;28;20201;-66
2024/02/12 08:02:21;;;;;;;51.70;20.98;;;;;;;;;;4993123;28;21420;-66
2024/02/12 08:04:47;;;;;;;63.30;21.65;;;;;;;;;;4990698;28;20042;-66
2024/02/12 08:07:14;;;;;;;54.03;21.55;;;;;;;;;;4990459;28;20131;-72
2024/02/12 08:09:40;;;;;;;56.90;22.05;;;;;;;;;;4980734;28;20046;-66
2024/02/12 08:12:08;;;;;;;48.88;20.65;;;;;;;;;;5011501;28;20046;-66
2024/02/12 08:14:36;;;;;;;50.13;19.65;;;;;;;;;;5002757;28;20129;-66
2024/02/12 08:17:04;;;;;;;51.13;19.42;;;;;;;;;;4999050;28;20121;-66
2024/02/12 08:19:31;;;;;;;54.35;19.58;;;;;;;;;;5005476;28;20171;-66
2024/02/12 08:21:57;;;;;;;40.65;18.23;;;;;;;;;;4981350;28;20482;-67
2024/02/12 08:24:24;;;;;;;46.75;19.40;;;;;;;;;;5001469;28;20364;-72
2024/02/12 08:26:50;;;;;;;46.53;18.85;;;;;;;;;;4994980;28;20050;-66
2024/02/12 08:29:16;;;;;;;47.92;18.35;;;;;;;;;;5004153;28;20041;-66
2024/02/12 08:31:43;;;;;;;44.33;18.88;;;;;;;;;;4998312;28;20145;-66
2024/02/12 08:34:12;;;;;;;43.80;18.27;;;;;;;;;;4986718;28;20049;-66
2024/02/12 08:36:43;;;;;;;46.55;18.17;;;;;;;;;;4990229;28;20046;-66
2024/02/12 08:39:13;;;;;;;42.63;17.45;;;;;;;;;;5003362;28;20041;-66
2024/02/12 08:41:40;;;;;;;45.95;18.02;;;;;;;;;;5003235;28;20136;-65
2024/02/12 08:44:08;;;;;;;39.13;17.80;;;;;;;;;;4998883;28;20433;-66
2024/02/12 08:46:35;;;;;;;47.22;20.10;;;;;;;;;;4983572;28;20061;-65
2024/02/12 08:49:01;;;;;;;39.17;17.20;;;;;;;;;;5000325;28;20516;-66
2024/02/12 08:51:28;;;;;;;45.03;16.42;;;;;;;;;;4984622;28;20100;-69
2024/02/12 08:53:55;;;;;;;47.03;16.30;;;;;;;;;;4994753;28;20053;-72
2024/02/12 08:56:21;;;;;;;37.40;16.52;;;;;;;;;;4998138;28;20390;-66
2024/02/12 08:58:48;;;;;;;38.28;16.50;;;;;;;;;;5000242;28;20107;-66
2024/02/12 09:01:17;;;;;;;37.92;15.07;;;;;;;;;;4998064;28;20046;-65
2024/02/12 09:03:44;;;;;;;34.30;13.75;;;;;;;;;;4969037;28;20088;-65
2024/02/12 09:06:14;;;;;;;40.58;13.73;;;;;;;;;;4992586;28;20089;-65
2024/02/12 09:08:42;;;;;;;36.58;14.18;;;;;;;;;;4998923;28;20041;-65
2024/02/12 09:11:09;;;;;;;46.50;16.35;;;;;;;;;;5003527;28;20096;-65
2024/02/12 09:13:35;;;;;;;30.02;12.68;;;;;;;;;;5003583;28;20065;-65
2024/02/12 09:16:01;;;;;;;36.38;13.73;;;;;;;;;;4995891;28;20038;-65
2024/02/12 09:18:28;;;;;;;32.28;13.65;;;;;;;;;;4994658;28;20064;-66
2024/02/12 09:20:55;;;;;;;32.83;11.85;;;;;;;;;;4997420;28;20448;-65
2024/02/12 09:23:21;;;;;;;27.60;10.98;;;;;;;;;;4984652;28;20038;-65
2024/02/12 09:25:49;;;;;;;20.95;11.98;;;;;;;;;;4985803;28;20106;-65
2024/02/12 09:28:16;;;;;;;30.17;11.95;;;;;;;;;;5003964;28;20084;-65
2024/02/12 09:30:44;;;;;;;24.90;10.15;;;;;;;;;;4996929;28;20107;-65
2024/02/12 09:33:10;;;;;;;29.05;10.35;;;;;;;;;;4994721;28;20545;-65
2024/02/12 09:35:37;;;;;;;25.67;9.48;;;;;;;;;;4981166;28;20602;-66
2024/02/12 09:38:04;;;;;;;18.70;8.70;;;;;;;;;;4973405;28;20360;-65
2024/02/12 09:40:33;;;;;;;29.45;9.57;;;;;;;;;;4978412;28;20057;-66
2024/02/12 09:42:59;;;;;;;26.05;8.73;;;;;;;;;;4976259;28;20447;-65
2024/02/12 09:45:29;;;;;;;25.70;9.45;;;;;;;;;;4977564;28;20054;-65
2024/02/12 09:47:56;;;;;;;20.80;8.27;;;;;;;;;;4975261;28;20038;-65
2024/02/12 09:50:22;;;;;;;24.73;8.30;;;;;;;;;;4972115;28;20069;-65
2024/02/12 09:52:50;;;;;;;21.13;7.78;;;;;;;;;;4971393;28;20470;-65
2024/02/12 09:55:18;;;;;;;23.23;7.43;;;;;;;;;;4974110;28;20066;-65
2024/02/12 09:57:44;;;;;;;20.13;8.18;;;;;;;;;;4972893;28;20677;-66
2024/02/12 10:00:11;;;;;;;21.90;7.72;;;;;;;;;;4971975;28;20046;-65
2024/02/12 10:02:39;;;;;;;28.90;8.07;;;;;;;;;;4972808;28;20518;-65
2024/02/12 10:05:07;;;;;;;19.20;7.32;;;;;;;;;;4980152;28;20049;-66
2024/02/12 10:07:39;;;;;;;25.92;7.38;;;;;;;;;;4977185;28;20054;-65
2024/02/12 10:10:07;;;;;;;23.58;6.90;;;;;;;;;;4978035;28;20054;-65
2024/02/12 10:12:35;;;;;;;24.48;7.13;;;;;;;;;;4974813;28;20560;-66
2024/02/12 10:15:02;;;;;;;27.55;7.88;;;;;;;;;;4978255;28;20051;-66
2024/02/12 10:17:28;;;;;;;22.50;7.00;;;;;;;;;;4981516;28;20055;-65
2024/02/12 10:19:55;;;;;;;16.42;6.38;;;;;;;;;;4977907;28;20342;-65
2024/02/12 10:22:23;;;;;;;18.77;6.10;;;;;;;;;;4982617;28;20053;-65
2024/02/12 10:24:50;;;;;;;22.33;6.75;;;;;;;;;;4981819;28;20138;-66
2024/02/12 10:27:21;;;;;;;22.10;5.32;;;;;;;;;;4974051;28;20073;-66
2024/02/12 10:29:58;;;;;;;25.08;8.27;;;;;;;;;;4981374;28;20051;-66
2024/02/12 10:32:25;;;;;;;18.65;5.43;;;;;;;;;;4972066;28;20046;-66
2024/02/12 10:34:55;;;;;;;17.52;6.40;;;;;;;;;;4975774;28;20486;-66
2024/02/12 10:37:24;;;;;;;19.33;5.25;;;;;;;;;;4980022;28;20046;-66
2024/02/12 10:39:51;;;;;;;18.92;6.10;;;;;;;;;;4984388;28;20537;-66
2024/02/12 10:42:22;;;;;;;24.63;7.25;;;;;;;;;;4985469;28;20092;-66
2024/02/12 10:44:50;;;;;;;37.70;7.63;;;;;;;;;;4982314;28;20056;-66
2024/02/12 10:47:17;;;;;;;19.75;8.00;;;;;;;;;;4979064;28;20046;-66
2024/02/12 10:49:44;;;;;;;20.50;6.85;;;;;;;;;;4980293;28;20080;-66
2024/02/12 10:52:12;;;;;;;24.90;6.60;;;;;;;;;;4984665;28;20471;-66
2024/02/12 10:54:38;;;;;;;27.83;6.82;;;;;;;;;;4988380;28;20077;-66
2024/02/12 10:57:06;;;;;;;22.98;6.18;;;;;;;;;;4993845;28;20062;-66
2024/02/12 10:59:33;;;;;;;22.42;5.47;;;;;;;;;;4979970;28;20049;-63
2024/02/12 11:02:06;;;;;;;21.70;6.80;;;;;;;;;;4989439;28;20231;-65
2024/02/12 11:04:37;;;;;;;20.40;5.97;;;;;;;;;;5001297;28;20046;-66
2024/02/12 11:07:18;;;;;;;18.75;6.63;;;;;;;;;;4990179;28;20097;-66
2024/02/12 11:09:57;;;;;;;15.98;5.25;;;;;;;;;;4988127;28;20169;-66
2024/02/12 11:12:24;;;;;;;18.58;6.13;;;;;;;;;;4995144;28;20073;-66
2024/02/12 11:14:51;;;;;;;17.42;5.47;;;;;;;;;;4986449;28;20141;-66
2024/02/12 11:17:22;;;;;;;17.38;5.53;;;;;;;;;;4980957;28;20052;-66
2024/02/12 11:19:49;;;;;;;17.75;4.85;;;;;;;;;;4979924;28;20375;-66
2024/02/12 11:22:31;;;;;;;18.25;5.53;;;;;;;;;;4996952;28;20046;-66
2024/02/12 11:25:03;;;;;;;21.52;7.00;;;;;;;;;;4962487;28;21082;-66
2024/02/12 11:27:42;;;;;;;23.67;5.72;;;;;;;;;;4987112;28;20108;-66
2024/02/12 11:30:09;;;;;;;19.08;5.10;;;;;;;;;;4988390;28;20085;-66
2024/02/12 11:32:37;;;;;;;15.15;4.50;;;;;;;;;;4984263;28;20054;-66
2024/02/12 11:35:12;;;;;;;19.70;4.32;;;;;;;;;;4980568;28;20050;-67
2024/02/12 11:37:41;;;;;;;13.35;4.32;;;;;;;;;;4991880;28;20137;-66
2024/02/12 11:40:12;;;;;;;19.63;4.10;;;;;;;;;;4982426;28;20100;-66
2024/02/12 11:42:49;;;;;;;13.52;3.72;;;;;;;;;;4972911;28;20057;-67
2024/02/12 11:45:18;;;;;;;11.73;4.20;;;;;;;;;;4989945;28;20046;-67
2024/02/12 11:47:46;;;;;;;18.30;3.75;;;;;;;;;;4994077;28;20129;-67
2024/02/12 11:50:19;;;;;;;12.60;3.70;;;;;;;;;;4983410;28;20045;-67
2024/02/12 11:52:46;;;;;;;20.65;3.85;;;;;;;;;;4998288;28;20042;-67
2024/02/12 11:55:12;;;;;;;13.43;4.18;;;;;;;;;;4988209;28;20164;-66
2024/02/12 11:57:40;;;;;;;13.80;3.88;;;;;;;;;;4982771;28;20108;-67
2024/02/12 12:00:13;;;;;;;16.67;4.40;;;;;;;;;;4988857;28;20058;-67
2024/02/12 12:02:40;;;;;;;17.15;4.40;;;;;;;;;;4985055;28;20502;-67
2024/02/12 12:05:06;;;;;;;10.80;3.78;;;;;;;;;;4975851;28;20159;-67
2024/02/12 12:07:33;;;;;;;13.68;4.00;;;;;;;;;;4989283;28;20133;-69
2024/02/12 12:10:01;;;;;;;12.85;3.53;;;;;;;;;;4997740;28;20042;-67
2024/02/12 12:12:27;;;;;;;16.85;4.72;;;;;;;;;;4993196;28;20092;-67
2024/02/12 12:14:54;;;;;;;14.82;3.90;;;;;;;;;;4987465;28;21154;-67
2024/02/12 12:17:21;;;;;;;10.80;3.67;;;;;;;;;;4986876;28;20081;-67
2024/02/12 12:19:47;;;;;;;15.02;4.00;;;;;;;;;;4991773;28;20046;-67
2024/02/12 12:22:17;;;;;;;16.52;3.65;;;;;;;;;;4982676;28;20563;-67
2024/02/12 12:24:45;;;;;;;16.30;4.13;;;;;;;;;;4996132;28;20177;-67
2024/02/12 12:27:22;;;;;;;16.10;4.00;;;;;;;;;;4995336;28;20512;-66
2024/02/12 12:29:48;;;;;;;9.60;3.45;;;;;;;;;;4976088;28;20570;-67
2024/02/12 12:32:15;;;;;;;12.70;2.97;;;;;;;;;;4992412;28;20046;-67
2024/02/12 12:34:41;;;;;;;12.73;3.90;;;;;;;;;;4989608;28;20168;-67
2024/02/12 12:37:08;;;;;;;10.20;3.38;;;;;;;;;;4994216;28;20045;-67
2024/02/12 12:39:34;;;;;;;13.05;3.20;;;;;;;;;;4987034;28;20038;-67
2024/02/12 12:42:00;;;;;;;10.18;3.53;;;;;;;;;;4980581;28;20078;-67
2024/02/12 12:44:27;;;;;;;12.60;3.70;;;;;;;;;;4984815;28;20494;-67
2024/02/12 12:46:55;;;;;;;13.15;3.55;;;;;;;;;;4982451;28;20042;-67
2024/02/12 12:49:22;;;;;;;13.38;3.33;;;;;;;;;;4984671;28;20050;-67
2024/02/12 12:51:48;;;;;;;10.30;3.00;;;;;;;;;;4965532;28;20077;-67
2024/02/12 12:54:14;;;;;;;15.90;4.13;;;;;;;;;;4997463;28;20046;-67
2024/02/12 12:56:41;;;;;;;16.45;3.75;;;;;;;;;;4985525;28;20037;-67
2024/02/12 12:59:07;;;;;;;11.32;3.10;;;;;;;;;;4995678;28;20117;-67
2024/02/12 13:01:33;;;;;;;11.10;3.22;;;;;;;;;;4997235;28;20086;-67
2024/02/12 13:04:00;;;;;;;13.77;3.35;;;;;;;;;;4979355;28;20461;-67
2024/02/12 13:06:28;;;;;;;33.72;3.90;;;;;;;;;;4983637;28;20177;-66
2024/02/12 13:08:54;;;;;;;9.25;2.13;;;;;;;;;;4983417;28;20045;-67
2024/02/12 13:11:20;;;;;;;15.63;2.95;;;;;;;;;;4991928;28;20429;-67
2024/02/12 13:13:46;;;;;;;12.25;2.33;;;;;;;;;;4993583;28;20115;-67
2024/02/12 13:16:13;;;;;;;17.52;2.35;;;;;;;;;;4993962;28;20046;-67
2024/02/12 13:18:39;;;;;;;10.20;2.72;;;;;;;;;;4983894;28;20053;-67
2024/02/12 13:21:06;;;;;;;11.75;2.92;;;;;;;;;;4991117;28;20093;-67
2024/02/12 13:23:34;;;;;;;8.98;2.47;;;;;;;;;;4990569;28;20065;-67
2024/02/12 13:26:04;;;;;;;11.85;3.25;;;;;;;;;;4980655;28;20438;-67
2024/02/12 13:28:30;;;;;;;16.83;2.95;;;;;;;;;;4994428;28;20082;-67
2024/02/12 13:30:57;;;;;;;11.98;2.83;;;;;;;;;;4986581;28;20397;-67
2024/02/12 13:33:23;;;;;;;17.00;3.22;;;;;;;;;;4983319;28;20107;-67
2024/02/12 13:35:49;;;;;;;12.20;3.03;;;;;;;;;;4988007;28;20053;-67
2024/02/12 13:38:17;;;;;;;12.18;2.80;;;;;;;;;;4995526;28;21281;-67
2024/02/12 13:40:44;;;;;;;14.60;3.00;;;;;;;;;;4976180;28;20046;-67
2024/02/12 13:43:10;;;;;;;12.85;3.00;;;;;;;;;;4994997;28;20433;-67
2024/02/12 13:45:38;;;;;;;12.85;3.10;;;;;;;;;;4994397;28;20049;-67
2024/02/12 13:48:07;;;;;;;15.00;2.60;;;;;;;;;;4993149;28;20111;-67
2024/02/12 13:50:34;;;;;;;13.48;2.58;;;;;;;;;;4986452;28;20493;-67
2024/02/12 13:53:05;;;;;;;10.80;2.58;;;;;;;;;;4986675;28;20136;-67
2024/02/12 13:55:32;;;;;;;14.07;3.88;;;;;;;;;;4986040;28;20114;-67
2024/02/12 13:57:59;;;;;;;15.80;4.10;;;;;;;;;;4984399;28;20046;-67
2024/02/12 14:00:27;;;;;;;12.45;2.95;;;;;;;;;;4985974;28;20053;-67
2024/02/12 14:02:53;;;;;;;13.80;2.83;;;;;;;;;;4991507;28;20674;-66
2024/02/12 14:05:20;;;;;;;12.75;2.90;;;;;;;;;;4985949;28;20397;-67
2024/02/12 14:07:47;;;;;;;15.57;3.00;;;;;;;;;;4988989;28;20563;-67
2024/02/12 14:10:17;;;;;;;11.07;2.95;;;;;;;;;;4981888;28;20493;-67
2024/02/12 14:12:45;;;;;;;10.40;2.88;;;;;;;;;;4974928;28;20062;-66
2024/02/12 14:15:12;;;;;;;20.23;2.60;;;;;;;;;;4981447;28;20048;-67
2024/02/12 14:17:43;;;;;;;11.55;2.70;;;;;;;;;;4981131;28;20050;-67
2024/02/12 14:20:17;;;;;;;10.43;2.83;;;;;;;;;;4992905;28;20034;-67
2024/02/12 14:22:44;;;;;;;11.57;2.13;;;;;;;;;;4999681;28;20110;-67
2024/02/12 14:25:10;;;;;;;11.40;2.63;;;;;;;;;;5006126;28;20071;-67
2024/02/12 14:27:37;;;;;;;14.00;3.47;;;;;;;;;;4986118;28;20410;-67
2024/02/12 14:30:04;;;;;;;8.82;2.15;;;;;;;;;;4967767;28;20041;-68
2024/02/12 14:32:31;;;;;;;16.15;2.38;;;;;;;;;;4984042;28;20050;-68
2024/02/12 14:34:57;;;;;;;9.15;2.15;;;;;;;;;;4985344;28;20416;-68
2024/02/12 14:37:24;;;;;;;11.40;2.35;;;;;;;;;;4993311;28;20063;-67